Time;durP1;ratioP1;P1;durP2;ratioP2;P2;SDS_P1;SDS_P2;PMS_P1;PMS_P2;Temp;Humidity;BMP_temperature;BMP_pressure;BME280_temperature;BME280_humidity;BME280_pressure;Samples;Min_cycle;Max_cycle;Signal;HPM_P1;HPM_P2
2023/07/28 00:00:26;;;;;;;;;;;;;;;16.04;100.00;99424.66;5038789;28;19912;-77
2023/07/28 00:02:51;;;;;;;;;;;;;;;16.04;100.00;99430.44;5038885;28;19908;-75
2023/07/28 00:05:16;;;;;;;;;;;;;;;16.04;100.00;99430.44;5056227;28;19954;-75
2023/07/28 00:07:42;;;;;;;;;;;;;;;16.05;100.00;99426.22;5056241;28;20377;-75
2023/07/28 00:10:09;;;;;;;;;;;;;;;16.06;100.00;99424.88;5039030;28;19912;-76
2023/07/28 00:12:34;;;;;;;;;;;;;;;16.09;100.00;99418.03;5038687;28;19966;-75
2023/07/28 00:15:00;;;;;;;;;;;;;;;16.10;100.00;99425.34;5056208;28;19921;-75
2023/07/28 00:17:26;;;;;;;;;;;;;;;16.14;100.00;99419.25;5056712;28;19912;-76
2023/07/28 00:19:51;;;;;;;;;;;;;;;16.17;100.00;99418.13;5038518;28;19915;-76
2023/07/28 00:22:16;;;;;;;;;;;;;;;16.20;100.00;99424.91;5038384;28;19909;-77
2023/07/28 00:24:42;;;;;;;;;;;;;;;16.20;100.00;99408.38;5056275;28;19912;-75
2023/07/28 00:27:07;;;;;;;;;;;;;;;16.22;100.00;99411.47;5038189;28;19952;-76
2023/07/28 00:29:33;;;;;;;;;;;;;;;16.24;100.00;99408.03;5056294;28;19915;-75
2023/07/28 00:31:58;;;;;;;;;;;;;;;16.25;100.00;99409.59;5056118;28;19916;-76
2023/07/28 00:34:24;;;;;;;;;;;;;;;16.25;100.00;99400.97;5056197;28;19909;-76
2023/07/28 00:36:49;;;;;;;;;;;;;;;16.24;100.00;99408.81;5038284;28;20320;-75
2023/07/28 00:39:15;;;;;;;;;;;;;;;16.23;100.00;99403.59;5056154;28;19916;-76
2023/07/28 00:41:40;;;;;;;;;;;;;;;16.22;100.00;99397.06;5056098;28;20000;-75
2023/07/28 00:44:06;;;;;;;;;;;;;;;16.22;100.00;99399.94;5038019;28;20424;-75
2023/07/28 00:46:31;;;;;;;;;;;;;;;16.21;100.00;99383.19;5021541;28;19919;-77
2023/07/28 00:48:57;;;;;;;;;;;;;;;16.23;100.00;99389.19;5055520;28;19915;-75
2023/07/28 00:51:23;;;;;;;;;;;;;;;16.23;100.00;99389.97;5055947;28;19909;-75
2023/07/28 00:53:49;;;;;;;;;;;;;;;16.23;100.00;99392.06;5037643;28;19915;-75
2023/07/28 00:56:16;;;;;;;;;;;;;;;16.24;100.00;99387.88;5055770;28;19987;-76
2023/07/28 00:58:41;;;;;;;;;;;;;;;16.26;100.00;99385.19;5055388;28;19951;-76
2023/07/28 01:01:07;;;;;;;;;;;;;;;16.26;100.00;99383.09;5055412;28;19952;-76
2023/07/28 01:03:32;;;;;;;;;;;;;;;16.27;100.00;99378.09;5055370;28;20263;-76
2023/07/28 01:06:01;;;;;;;;;;;;;;;16.29;100.00;99378.31;5037375;28;19909;-74
2023/07/28 01:08:27;;;;;;;;;;;;;;;16.31;100.00;99385.06;5055496;28;19916;-77
2023/07/28 01:10:54;;;;;;;;;;;;;;;16.34;100.00;99383.19;5037301;28;19908;-75
2023/07/28 01:13:21;;;;;;;;;;;;;;;16.35;100.00;99379.00;5037780;28;19915;-76
2023/07/28 01:15:48;;;;;;;;;;;;;;;16.37;100.00;99370.53;5055560;28;19908;-76
2023/07/28 01:18:15;;;;;;;;;;;;;;;16.40;100.00;99372.34;5055507;28;19931;-76
2023/07/28 01:20:41;;;;;;;;;;;;;;;16.44;100.00;99375.66;5037150;28;19920;-75
2023/07/28 01:23:27;;;;;;;;;;;;;;;16.48;100.00;99371.09;5037711;28;19974;-77
2023/07/28 01:26:04;;;;;;;;;;;;;;;16.51;100.00;99364.19;5054742;28;19916;-76
2023/07/28 01:28:29;;;;;;;;;;;;;;;16.53;100.00;99364.47;5055011;28;20285;-78
2023/07/28 01:31:03;;;;;;;;;;;;;;;16.58;100.00;99376.44;5054367;28;19909;-77
2023/07/28 01:33:29;;;;;;;;;;;;;;;16.63;100.00;99366.88;5055003;28;19912;-76
2023/07/28 01:35:55;;;;;;;;;;;;;;;16.65;100.00;99362.09;5054890;28;19908;-77
2023/07/28 01:38:24;;;;;;;;;;;;;;;16.64;100.00;99360.56;5037488;28;19912;-77
2023/07/28 01:40:51;;;;;;;;;;;;;;;16.64;100.00;99357.69;5037409;28;19916;-77
2023/07/28 01:43:16;;;;;;;;;;;;;;;16.65;100.00;99359.19;5036935;28;19914;-76
2023/07/28 01:45:43;;;;;;;;;;;;;;;16.66;100.00;99352.09;5036624;28;19912;-75
2023/07/28 01:48:09;;;;;;;;;;;;;;;16.66;100.00;99346.34;5054538;28;19959;-75
2023/07/28 01:50:38;;;;;;;;;;;;;;;16.66;100.00;99336.91;5054403;28;19962;-75
2023/07/28 01:53:07;;;;;;;;;;;;;;;16.64;100.00;99339.59;5054922;28;19931;-77
2023/07/28 01:55:33;;;;;;;;;;;;;;;16.62;100.00;99331.47;5054579;28;19909;-76
2023/07/28 01:58:03;;;;;;;;;;;;;;;16.61;100.00;99329.16;5054586;28;19916;-76
2023/07/28 02:00:29;;;;;;;;;;;;;;;16.59;100.00;99328.94;5054530;28;19919;-76
2023/07/28 02:02:55;;;;;;;;;;;;;;;16.56;100.00;99333.72;5054849;28;19908;-77
2023/07/28 02:05:20;;;;;;;;;;;;;;;16.53;100.00;99331.94;5036687;28;19909;-75
2023/07/28 02:07:46;;;;;;;;;;;;;;;16.54;100.00;99336.41;5020023;28;20296;-74
2023/07/28 02:10:11;;;;;;;;;;;;;;;16.56;100.00;99339.47;5036758;28;19916;-75
2023/07/28 02:12:38;;;;;;;;;;;;;;;16.55;100.00;99340.81;5054277;28;20361;-77
2023/07/28 02:15:05;;;;;;;;;;;;;;;16.56;100.00;99342.38;5035901;28;19975;-74
2023/07/28 02:17:30;;;;;;;;;;;;;;;16.56;100.00;99339.47;5036400;28;20357;-77
2023/07/28 02:19:56;;;;;;;;;;;;;;;16.57;100.00;99343.16;5053511;28;19908;-77
2023/07/28 02:22:22;;;;;;;;;;;;;;;16.57;100.00;99337.38;5054101;28;19939;-75
2023/07/28 02:24:47;;;;;;;;;;;;;;;16.57;100.00;99338.16;5053614;28;19908;-76
2023/07/28 02:27:12;;;;;;;;;;;;;;;16.67;100.00;99339.22;5019807;28;19908;-76
2023/07/28 02:29:39;;;;;;;;;;;;;;;16.72;100.00;99343.31;5054353;28;20278;-75
2023/07/28 02:32:04;;;;;;;;;;;;;;;16.75;100.00;99328.53;5036032;28;19995;-76
2023/07/28 02:34:29;;;;;;;;;;;;;;;16.78;100.00;99330.31;5035949;28;19958;-77
2023/07/28 02:36:55;;;;;;;;;;;;;;;16.73;100.00;99325.47;5053854;28;19915;-77
2023/07/28 02:39:22;;;;;;;;;;;;;;;16.74;100.00;99338.56;5053922;28;19920;-78
2023/07/28 02:41:47;;;;;;;;;;;;;;;16.77;100.00;99339.53;5036804;28;19912;-77
2023/07/28 02:44:13;;;;;;;;;;;;;;;16.80;100.00;99344.97;5055026;28;19931;-77
2023/07/28 02:46:38;;;;;;;;;;;;;;;16.82;100.00;99347.28;5054230;28;20006;-77
2023/07/28 02:49:05;;;;;;;;;;;;;;;16.84;100.00;99344.63;5053935;28;19948;-76
2023/07/28 02:51:30;;;;;;;;;;;;;;;16.87;100.00;99350.06;5053980;28;19909;-77
2023/07/28 02:53:57;;;;;;;;;;;;;;;16.87;100.00;99332.72;5035743;28;19908;-77
2023/07/28 02:56:22;;;;;;;;;;;;;;;16.90;100.00;99330.81;5053740;28;19935;-76
2023/07/28 02:58:49;;;;;;;;;;;;;;;16.87;100.00;99323.28;5052922;28;20281;-77
2023/07/28 03:01:15;;;;;;;;;;;;;;;16.86;100.00;99330.41;5035690;28;19990;-75
2023/07/28 03:03:41;;;;;;;;;;;;;;;16.84;100.00;99325.22;5053611;28;19909;-75
2023/07/28 03:06:06;;;;;;;;;;;;;;;16.95;100.00;99338.56;5053555;28;19931;-76
2023/07/28 03:08:33;;;;;;;;;;;;;;;16.97;100.00;99330.13;5053816;28;20265;-78
2023/07/28 03:10:58;;;;;;;;;;;;;;;16.91;100.00;99332.38;5053861;28;19955;-76
2023/07/28 03:13:24;;;;;;;;;;;;;;;16.88;100.00;99337.19;5053268;28;19908;-76
2023/07/28 03:15:50;;;;;;;;;;;;;;;16.88;100.00;99345.06;5053449;28;19904;-76
2023/07/28 03:18:16;;;;;;;;;;;;;;;16.87;100.00;99346.38;5053418;28;20278;-76
2023/07/28 03:20:42;;;;;;;;;;;;;;;16.86;100.00;99347.72;5052953;28;20020;-77
2023/07/28 03:23:08;;;;;;;;;;;;;;;16.84;100.00;99359.84;5035260;28;19920;-75
2023/07/28 03:25:34;;;;;;;;;;;;;;;16.78;100.00;99358.41;5053483;28;19916;-77
2023/07/28 03:28:00;;;;;;;;;;;;;;;16.75;100.00;99363.16;5055457;28;19990;-75
2023/07/28 03:30:26;;;;;;;;;;;;;;;16.72;100.00;99364.31;5057573;28;20350;-75
2023/07/28 03:32:51;;;;;;;;;;;;;;;16.72;100.00;99357.75;5057336;28;19920;-76
2023/07/28 03:35:17;;;;;;;;;;;;;;;16.74;100.00;99357.97;5057469;28;19909;-77
2023/07/28 03:37:43;;;;;;;;;;;;;;;16.76;100.00;99358.19;5039596;28;20324;-78
2023/07/28 03:40:11;;;;;;;;;;;;;;;16.78;100.00;99359.19;5057589;28;19978;-77
2023/07/28 03:42:36;;;;;;;;;;;;;;;16.80;100.00;99359.38;5057303;28;19963;-76
2023/07/28 03:45:03;;;;;;;;;;;;;;;16.88;100.00;99345.84;5022810;28;20315;-77
2023/07/28 03:47:30;;;;;;;;;;;;;;;16.90;100.00;99346.03;5039503;28;19908;-78
2023/07/28 03:49:55;;;;;;;;;;;;;;;16.94;100.00;99339.94;5056940;28;19909;-77
2023/07/28 03:52:21;;;;;;;;;;;;;;;16.84;100.00;99325.22;5056996;28;19909;-76
2023/07/28 03:54:47;;;;;;;;;;;;;;;16.98;100.00;99343.25;5056971;28;19915;-76
2023/07/28 03:57:13;;;;;;;;;;;;;;;17.01;100.00;99336.34;5056879;28;19963;-77
2023/07/28 03:59:38;;;;;;;;;;;;;;;17.05;100.00;99341.75;5056921;28;19909;-77
2023/07/28 04:02:04;;;;;;;;;;;;;;;17.06;100.00;99331.75;5057004;28;20333;-78
2023/07/28 04:04:30;;;;;;;;;;;;;;;17.07;100.00;99327.53;5056693;28;20278;-77
2023/07/28 04:06:56;;;;;;;;;;;;;;;17.08;100.00;99329.88;5057192;28;20339;-76
2023/07/28 04:09:21;;;;;;;;;;;;;;;17.08;100.00;99329.09;5056982;28;19940;-76
2023/07/28 04:11:48;;;;;;;;;;;;;;;17.11;100.00;99322.19;5038797;28;20349;-76
2023/07/28 04:14:15;;;;;;;;;;;;;;;17.12;100.00;99317.97;5056549;28;19924;-75
2023/07/28 04:16:41;;;;;;;;;;;;;;;17.12;100.00;99312.19;5056413;28;19916;-78
2023/07/28 04:19:06;;;;;;;;;;;;;;;17.12;100.00;99312.19;5056228;28;19913;-76
2023/07/28 04:21:32;;;;;;;;;;;;;;;17.12;100.00;99312.19;5021590;28;20361;-76
2023/07/28 04:23:59;;;;;;;;;;;;;;;17.14;100.00;99313.16;5056290;28;19909;-77
2023/07/28 04:26:25;;;;;;;;;;;;;;;17.17;100.00;99305.50;5038148;28;20335;-76
2023/07/28 04:28:59;;;;;;;;;;;;;;;17.20;100.00;99307.25;5038341;28;19947;-76
2023/07/28 04:31:24;;;;;;;;;;;;;;;17.20;100.00;99305.16;5055732;28;19935;-77
2023/07/28 04:33:49;;;;;;;;;;;;;;;17.22;100.00;99298.81;5055561;28;19913;-75
2023/07/28 04:36:15;;;;;;;;;;;;;;;17.20;100.00;99302.25;5055742;28;19909;-76
2023/07/28 04:38:41;;;;;;;;;;;;;;;17.11;100.00;99299.09;5054977;28;19928;-77
2023/07/28 04:41:07;;;;;;;;;;;;;;;17.10;100.00;99297.53;5055784;28;20266;-77
2023/07/28 04:43:33;;;;;;;;;;;;;;;17.12;100.00;99301.44;5037832;28;20320;-77
2023/07/28 04:45:59;;;;;;;;;;;;;;;17.16;100.00;99298.19;5037039;28;19916;-77
2023/07/28 04:48:26;;;;;;;;;;;;;;;17.20;100.00;99305.16;5056097;28;19908;-75
2023/07/28 04:50:51;;;;;;;;;;;;;;;17.23;100.00;99300.38;5038024;28;19912;-83
2023/07/28 04:53:17;;;;;;;;;;;;;;;17.26;100.00;99302.13;5038146;28;19908;-83
2023/07/28 04:55:43;;;;;;;;;;;;;;;17.28;100.00;99302.34;5037979;28;19915;-88
2023/07/28 04:58:08;;;;;;;;;;;;;;;17.29;100.00;99301.00;5038170;28;19909;-74
2023/07/28 05:00:33;;;;;;;;;;;;;;;17.30;100.00;99309.09;5055065;28;19920;-78
2023/07/28 05:03:00;;;;;;;;;;;;;;;17.34;100.00;99309.50;5062615;28;19955;-75
2023/07/28 05:05:26;;;;;;;;;;;;;;;17.40;100.00;99315.91;5075874;28;19950;-77
2023/07/28 05:07:52;;;;;;;;;;;;;;;17.46;100.00;99317.91;5057663;28;19912;-76
2023/07/28 05:10:18;;;;;;;;;;;;;;;17.50;100.00;99321.22;5075878;28;19908;-78
2023/07/28 05:12:43;;;;;;;;;;;;;;;17.51;100.00;99329.31;5075375;28;19908;-77
2023/07/28 05:15:10;;;;;;;;;;;;;;;17.48;100.00;99327.56;5075211;28;19917;-78
2023/07/28 05:17:38;;;;;;;;;;;;;;;17.45;100.00;99337.34;5075581;28;19909;-78
2023/07/28 05:20:20;;;;;;;;;;;;;;;17.45;100.00;99339.47;5075646;28;19908;-78
2023/07/28 05:22:45;;;;;;;;;;;;;;;17.45;100.00;99340.25;5075517;28;20272;-77
2023/07/28 05:25:11;;;;;;;;;;;;;;;17.45;100.00;99345.25;5075417;28;19908;-76
2023/07/28 05:27:38;;;;;;;;;;;;;;;17.37;100.00;99333.59;5072709;28;19923;-77
2023/07/28 05:30:05;;;;;;;;;;;;;;;17.36;100.00;99337.81;5054190;28;19913;-76
2023/07/28 05:32:31;;;;;;;;;;;;;;;17.42;100.00;99344.25;5064750;28;19920;-76
2023/07/28 05:34:56;;;;;;;;;;;;;;;17.44;100.00;99343.69;5057027;28;19912;-77
2023/07/28 05:37:22;;;;;;;;;;;;;;;17.47;100.00;99342.56;5074948;28;19909;-76
2023/07/28 05:39:47;;;;;;;;;;;;;;;17.49;100.00;99337.75;5056996;28;19908;-76
2023/07/28 05:42:12;;;;;;;;;;;;;;;17.55;100.00;99332.63;5074889;28;20021;-75
2023/07/28 05:44:38;;;;;;;;;;;;;;;17.63;100.00;99324.03;5074819;28;19908;-77
2023/07/28 05:47:06;;;;;;;;;;;;;;;17.70;100.00;99329.84;5074047;28;19916;-76
2023/07/28 05:49:31;;;;;;;;;;;;;;;17.79;100.00;99328.56;5055019;28;19923;-77
2023/07/28 05:51:57;;;;;;;;;;;;;;;17.91;100.00;99337.72;5052943;28;19995;-77
2023/07/28 05:54:23;;;;;;;;;;;;;;;18.02;100.00;99337.41;5053647;28;19912;-77
2023/07/28 05:56:48;;;;;;;;;;;;;;;18.06;100.00;99329.91;5054575;28;19908;-76
2023/07/28 05:59:13;;;;;;;;;;;;;;;18.13;100.00;99331.28;5054756;28;19912;-76
2023/07/28 06:01:38;;;;;;;;;;;;;;;18.21;100.00;99335.00;5062740;28;19923;-77
2023/07/28 06:04:04;;;;;;;;;;;;;;;18.32;100.00;99339.72;5049197;28;19912;-76
2023/07/28 06:06:29;;;;;;;;;;;;;;;18.41;100.00;99337.06;5054452;28;20353;-78
2023/07/28 06:08:55;;;;;;;;;;;;;;;18.49;100.00;99334.97;5054277;28;19908;-76
2023/07/28 06:11:20;;;;;;;;;;;;;;;18.60;100.00;99334.63;5056525;28;19919;-78
2023/07/28 06:13:46;;;;;;;;;;;;;;;18.74;100.00;99331.59;5055857;28;19924;-77
2023/07/28 06:16:11;;;;;;;;;;;;;;;18.93;100.00;99337.81;5074187;28;19916;-77
2023/07/28 06:18:38;;;;;;;;;;;;;;;19.08;100.00;99321.25;5074009;28;19915;-77
2023/07/28 06:21:04;;;;;;;;;;;;;;;19.20;100.00;99324.59;5071424;28;19966;-78
2023/07/28 06:23:30;;;;;;;;;;;;;;;19.31;100.00;99330.03;5074044;28;20012;-78
2023/07/28 06:25:55;;;;;;;;;;;;;;;19.43;100.00;99333.28;5071679;28;19955;-78
2023/07/28 06:28:21;;;;;;;;;;;;;;;19.54;100.00;99330.78;5074014;28;19963;-76
2023/07/28 06:30:47;;;;;;;;;;;;;;;19.56;100.00;99332.34;5074120;28;19908;-77
2023/07/28 06:33:12;;;;;;;;;;;;;;;19.50;100.00;99327.50;5074181;28;19912;-77
2023/07/28 06:35:38;;;;;;;;;;;;;;;19.47;100.00;99325.75;5073179;28;19962;-76
2023/07/28 06:38:03;;;;;;;;;;;;;;;19.39;100.00;99333.69;5056250;28;20396;-78
2023/07/28 06:40:29;;;;;;;;;;;;;;;19.38;100.00;99334.25;5055991;28;19960;-79
2023/07/28 06:42:55;;;;;;;;;;;;;;;19.36;100.00;99334.06;5073768;28;19952;-78
2023/07/28 06:45:21;;;;;;;;;;;;;;;19.33;100.00;99343.91;5071955;28;19942;-77
2023/07/28 06:47:46;;;;;;;;;;;;;;;19.33;100.00;99343.91;5074064;28;19947;-77
2023/07/28 06:50:13;;;;;;;;;;;;;;;19.33;100.00;99341.00;5074053;28;19951;-77
2023/07/28 06:52:38;;;;;;;;;;;;;;;19.38;100.00;99342.94;5056126;28;19908;-77
2023/07/28 06:55:03;;;;;;;;;;;;;;;19.49;100.00;99331.75;5056160;28;19909;-77
2023/07/28 06:57:29;;;;;;;;;;;;;;;19.66;100.00;99342.00;5055915;28;20230;-76
2023/07/28 06:59:54;;;;;;;;;;;;;;;19.76;100.00;99340.81;5074020;28;19908;-78
2023/07/28 07:02:20;;;;;;;;;;;;;;;19.84;100.00;99335.03;5073587;28;19913;-78
2023/07/28 07:04:45;;;;;;;;;;;;;;;19.91;100.00;99335.00;5055226;28;19908;-77
2023/07/28 07:07:11;;;;;;;;;;;;;;;20.00;100.00;99333.69;5072815;28;19943;-76
2023/07/28 07:09:37;;;;;;;;;;;;;;;20.03;100.00;99335.41;5073781;28;20402;-77
2023/07/28 07:12:03;;;;;;;;;;;;;;;19.99;100.00;99334.25;5067531;28;19917;-77
2023/07/28 07:14:29;;;;;;;;;;;;;;;19.95;100.00;99338.31;5058617;28;19917;-78
2023/07/28 07:16:55;;;;;;;;;;;;;;;19.95;100.00;99352.81;5053635;28;20257;-77
2023/07/28 07:19:21;;;;;;;;;;;;;;;20.01;100.00;99354.72;5053452;28;20375;-78
2023/07/28 07:21:49;;;;;;;;;;;;;;;20.13;100.00;99359.56;5053514;28;19913;-76
2023/07/28 07:24:14;;;;;;;;;;;;;;;20.30;100.00;99358.97;5053409;28;19909;-79
2023/07/28 07:26:46;;;;;;;;;;;;;;;20.41;100.00;99361.41;5035988;28;19916;-85
2023/07/28 07:29:11;;;;;;;;;;;;;;;20.42;100.00;99359.28;5067297;28;19942;-80
2023/07/28 07:31:36;;;;;;;;;;;;;;;20.55;100.00;99371.44;5055776;28;19909;-77
2023/07/28 07:34:04;;;;;;;;;;;;;;;20.64;100.00;99370.84;5055106;28;19912;-80
2023/07/28 07:36:30;;;;;;;;;;;;;;;20.66;100.00;99368.09;5053603;28;19916;-77
2023/07/28 07:38:56;;;;;;;;;;;;;;;20.65;100.00;99371.59;5052483;28;19913;-79
2023/07/28 07:41:21;;;;;;;;;;;;;;;20.65;100.00;99366.56;5053860;28;19919;-79
2023/07/28 07:43:48;;;;;;;;;;;;;;;20.66;100.00;99368.09;5054122;28;20358;-78
2023/07/28 07:46:14;;;;;;;;;;;;;;;20.65;100.00;99369.47;5052799;28;19912;-80
2023/07/28 07:48:39;;;;;;;;;;;;;;;20.69;100.00;99371.97;5052394;28;20251;-77
2023/07/28 07:51:04;;;;;;;;;;;;;;;20.71;100.00;99369.28;5053384;28;20008;-78
2023/07/28 07:53:30;;;;;;;;;;;;;;;20.72;100.00;99371.59;5053312;28;19909;-83
2023/07/28 07:55:57;;;;;;;;;;;;;;;20.78;100.00;99374.28;5052402;28;19908;-80
2023/07/28 07:58:22;;;;;;;;;;;;;;;20.79;100.00;99379.50;5051809;28;20094;-81
2023/07/28 08:00:47;;;;;;;;;;;;;;;20.76;100.00;99377.78;5033947;28;20026;-81
2023/07/28 08:03:13;;;;;;;;;;;;;;;20.64;100.00;99370.84;5053714;28;19909;-82
2023/07/28 08:05:38;;;;;;;;;;;;;;;20.65;100.00;99369.47;5053424;28;20343;-82
2023/07/28 08:08:05;;;;;;;;;;;;;;;20.62;100.00;99370.63;5051743;28;19908;-82
2023/07/28 08:10:30;;;;;;;;;;;;;;;20.63;100.00;99375.09;5053740;28;19908;-80
2023/07/28 08:12:55;;;;;;;;;;;;;;;20.65;100.00;99381.06;5053806;28;20263;-80
2023/07/28 08:15:21;;;;;;;;;;;;;;;20.63;100.00;99377.22;5056480;28;19917;-80
2023/07/28 08:17:46;;;;;;;;;;;;;;;20.59;100.00;99385.56;5055112;28;19962;-81
2023/07/28 08:20:11;;;;;;;;;;;;;;;20.57;100.00;99388.28;5038469;28;19909;-80
2023/07/28 08:22:37;;;;;;;;;;;;;;;20.62;100.00;99384.38;5056257;28;19912;-81
2023/07/28 08:25:02;;;;;;;;;;;;;;;20.66;100.00;99378.94;5056762;28;19916;-80
2023/07/28 08:27:27;;;;;;;;;;;;;;;20.70;100.00;99388.03;5056470;28;19958;-81
2023/07/28 08:29:53;;;;;;;;;;;;;;;20.65;100.00;99389.78;5056634;28;20003;-80
2023/07/28 08:32:18;;;;;;;;;;;;;;;20.49;100.00;99387.53;5054821;28;19924;-80
2023/07/28 08:34:43;;;;;;;;;;;;;;;20.33;100.00;99389.69;5055102;28;19999;-80
2023/07/28 08:37:08;;;;;;;;;;;;;;;20.24;100.00;99384.50;5056181;28;19932;-81
2023/07/28 08:39:34;;;;;;;;;;;;;;;20.29;100.00;99389.31;5056039;28;19955;-81
2023/07/28 08:42:02;;;;;;;;;;;;;;;20.32;100.00;99383.13;5056269;28;20316;-81
2023/07/28 08:44:34;;;;;;;;;;;;;;;20.39;100.00;99393.94;5056220;28;19976;-80
2023/07/28 08:46:59;;;;;;;;;;;;;;;20.45;100.00;99393.72;5056177;28;19939;-80
2023/07/28 08:49:26;;;;;;;;;;;;;;;20.47;100.00;99393.13;5054788;28;19909;-79
2023/07/28 08:51:52;;;;;;;;;;;;;;;20.51;100.00;99396.41;5038336;28;19909;-80
2023/07/28 08:54:17;;;;;;;;;;;;;;;20.56;100.00;99399.09;5054704;28;20362;-80
2023/07/28 08:56:43;;;;;;;;;;;;;;;20.57;100.00;99397.75;5055812;28;19915;-82
2023/07/28 08:59:09;;;;;;;;;;;;;;;20.61;100.00;99406.84;5054558;28;19974;-81
2023/07/28 09:01:38;;;;;;;;;;;;;;;20.64;100.00;99413.63;5037625;28;20308;-80
2023/07/28 09:04:06;;;;;;;;;;;;;;;20.61;100.00;99417.66;5055531;28;19948;-81
2023/07/28 09:06:32;;;;;;;;;;;;;;;20.58;100.00;99415.94;5054023;28;19963;-81
2023/07/28 09:08:57;;;;;;;;;;;;;;;20.59;100.00;99418.28;5054112;28;19913;-82
2023/07/28 09:11:24;;;;;;;;;;;;;;;20.74;100.00;99408.78;5055319;28;20319;-81
2023/07/28 09:13:52;;;;;;;;;;;;;;;21.09;100.00;99401.06;5057131;28;19971;-81
2023/07/28 09:16:18;;;;;;;;;;;;;;;21.56;100.00;99403.13;5055295;28;19909;-81
2023/07/28 09:18:43;;;;;;;;;;;;;;;22.04;100.00;99398.66;5055380;28;19913;-82
2023/07/28 09:21:16;;;;;;;;;;;;;;;22.54;100.00;99398.56;5054994;28;19916;-81
2023/07/28 09:23:41;;;;;;;;;;;;;;;23.07;100.00;99391.34;5055711;28;19909;-82
2023/07/28 09:26:07;;;;;;;;;;;;;;;23.56;100.00;99396.09;5054226;28;19909;-83
2023/07/28 09:28:36;;;;;;;;;;;;;;;24.03;100.00;99398.44;5055300;28;19924;-82
2023/07/28 09:31:02;;;;;;;;;;;;;;;24.47;100.00;99395.31;5055436;28;19991;-83
2023/07/28 09:33:30;;;;;;;;;;;;;;;24.98;100.00;99390.44;5053825;28;20465;-82
2023/07/28 09:35:57;;;;;;;;;;;;;;;25.45;100.00;99383.72;5054074;28;19905;-81
2023/07/28 09:38:22;;;;;;;;;;;;;;;25.81;100.00;99368.03;5053708;28;20321;-82
2023/07/28 09:40:47;;;;;;;;;;;;;;;26.32;100.00;99371.63;5054911;28;20058;-83
2023/07/28 09:43:13;;;;;;;;;;;;;;;26.91;100.00;99367.59;5056198;28;19908;-84
2023/07/28 09:45:38;;;;;;;;;;;;;;;27.49;100.00;99359.00;5055318;28;19920;-82
2023/07/28 09:48:05;;;;;;;;;;;;;;;27.63;100.00;99353.28;5054708;28;19932;-82
2023/07/28 09:50:32;;;;;;;;;;;;;;;27.57;100.00;99349.94;5060718;28;20346;-82
2023/07/28 09:52:59;;;;;;;;;;;;;;;27.39;100.00;99349.56;5053651;28;19913;-83
2023/07/28 09:55:25;;;;;;;;;;;;;;;27.16;100.00;99353.16;5053705;28;20400;-82
2023/07/28 09:57:51;;;;;;;;;;;;;;;26.75;100.00;99360.69;5053465;28;19908;-82
2023/07/28 10:00:17;;;;;;;;;;;;;;;26.30;100.00;99348.81;5054420;28;20253;-82
2023/07/28 10:02:42;;;;;;;;;;;;;;;26.09;100.00;99360.50;5053128;28;20342;-84
2023/07/28 10:05:07;;;;;;;;;;;;;;;26.09;100.00;99351.69;5054475;28;20312;-82
2023/07/28 10:07:34;;;;;;;;;;;;;;;26.07;100.00;99336.16;5054301;28;19931;-82
2023/07/28 10:10:00;;;;;;;;;;;;;;;26.09;100.00;99348.78;5053092;28;19909;-83
2023/07/28 10:12:28;;;;;;;;;;;;;;;25.91;100.00;99351.19;5053097;28;19962;-82
2023/07/28 10:15:03;;;;;;;;;;;;;;;25.64;100.00;99344.09;5054065;28;20366;-82
2023/07/28 10:17:37;;;;;;;;;;;;;;;25.47;100.00;99353.84;5053393;28;20338;-81
2023/07/28 10:20:09;;;;;;;;;;;;;;;25.41;100.00;99345.38;5036387;28;19959;-82
2023/07/28 10:22:44;;;;;;;;;;;;;;;25.37;100.00;99347.25;5052791;28;19912;-82
2023/07/28 10:25:10;;;;;;;;;;;;;;;25.35;100.00;99350.03;5054348;28;20004;-82
2023/07/28 10:27:36;;;;;;;;;;;;;;;25.37;100.00;99350.94;5052714;28;19995;-84
2023/07/28 10:30:05;;;;;;;;;;;;;;;25.35;100.00;99350.78;5054093;28;19908;-83
2023/07/28 10:32:37;;;;;;;;;;;;;;;25.47;100.00;99342.13;5054247;28;19999;-83
2023/07/28 10:35:06;;;;;;;;;;;;;;;25.69;100.00;99342.97;5054176;28;19920;-83
2023/07/28 10:37:32;;;;;;;;;;;;;;;26.06;100.00;99346.34;5053495;28;19908;-83
2023/07/28 10:40:20;;;;;;;;;;;;;;;26.43;100.00;99341.63;5053979;28;19915;-82
2023/07/28 10:42:46;;;;;;;;;;;;;;;26.55;100.00;99338.75;5054143;28;20346;-81
2023/07/28 10:45:12;;;;;;;;;;;;;;;26.46;100.00;99360.88;5053826;28;19920;-82
2023/07/28 10:47:37;;;;;;;;;;;;;;;26.32;100.00;99351.09;5053957;28;19909;-82
2023/07/28 10:50:04;;;;;;;;;;;;;;;26.29;100.00;99337.72;5052619;28;19913;-82
2023/07/28 10:52:29;;;;;;;;;;;;;;;26.12;100.00;99338.75;5053739;28;20278;-83
2023/07/28 10:54:54;;;;;;;;;;;;;;;25.88;100.00;99349.50;5053661;28;19913;-83
2023/07/28 10:57:20;;;;;;;;;;;;;;;25.82;100.00;99354.94;5054201;28;19930;-83
2023/07/28 10:59:46;;;;;;;;;;;;;;;25.99;100.00;99345.13;5054331;28;19913;-83
2023/07/28 11:02:15;;;;;;;;;;;;;;;26.26;100.00;99336.81;5052434;28;19983;-83
2023/07/28 11:04:45;;;;;;;;;;;;;;;26.42;100.00;99342.25;5053714;28;20357;-83
2023/07/28 11:07:11;;;;;;;;;;;;;;;26.33;100.00;99353.41;5053642;28;20277;-84
2023/07/28 11:09:36;;;;;;;;;;;;;;;26.19;100.00;99342.88;5052351;28;19913;-83
2023/07/28 11:12:01;;;;;;;;;;;;;;;26.31;100.00;99347.44;5053908;28;19909;-82
2023/07/28 11:14:27;;;;;;;;;;;;;;;26.39;100.00;99341.34;5053482;28;19916;-83
2023/07/28 11:16:52;;;;;;;;;;;;;;;26.51;100.00;99333.41;5052246;28;20012;-82
2023/07/28 11:19:24;;;;;;;;;;;;;;;26.65;100.00;99340.22;5052247;28;19908;-82
2023/07/28 11:21:51;;;;;;;;;;;;;;;26.74;100.00;99344.47;5051883;28;20011;-83
2023/07/28 11:24:18;;;;;;;;;;;;;;;26.79;100.00;99337.50;5053714;28;20281;-82
2023/07/28 11:26:43;;;;;;;;;;;;;;;26.71;99.30;99334.00;5053558;28;19959;-83
2023/07/28 11:29:08;;;;;;;;;;;;;;;26.66;100.00;99321.22;5053419;28;19948;-83
2023/07/28 11:31:34;;;;;;;;;;;;;;;26.77;100.00;99325.63;5051809;28;19986;-83
2023/07/28 11:33:59;;;;;;;;;;;;;;;26.89;100.00;99317.63;5052009;28;20278;-82
2023/07/28 11:36:27;;;;;;;;;;;;;;;27.00;100.00;99337.44;5035232;28;20008;-83
2023/07/28 11:38:54;;;;;;;;;;;;;;;27.05;100.00;99324.56;5052050;28;20455;-83
2023/07/28 11:41:19;;;;;;;;;;;;;;;27.06;99.32;99323.16;5053279;28;20000;-83
2023/07/28 11:43:48;;;;;;;;;;;;;;;27.06;98.72;99325.34;5053583;28;19958;-83
2023/07/28 11:46:35;;;;;;;;;;;;;;;27.16;98.81;99317.19;5052128;28;19913;-83
2023/07/28 11:49:18;;;;;;;;;;;;;;;27.17;93.27;99307.75;5054800;28;19914;-83
2023/07/28 11:51:44;;;;;;;;;;;;;;;26.64;96.25;99326.19;5055894;28;20281;-82
2023/07/28 11:54:16;;;;;;;;;;;;;;;26.43;96.87;99317.41;5056935;28;19909;-82
2023/07/28 11:56:45;;;;;;;;;;;;;;;26.27;99.58;99326.63;5057250;28;19947;-80
2023/07/28 11:59:11;;;;;;;;;;;;;;;26.30;100.00;99321.69;5056965;28;20358;-81
2023/07/28 12:01:55;;;;;;;;;;;;;;;26.41;100.00;99308.50;5056968;28;19935;-80
2023/07/28 12:04:30;;;;;;;;;;;;;;;26.47;98.34;99315.50;5056979;28;19915;-81
2023/07/28 12:07:16;;;;;;;;;;;;;;;26.46;98.23;99304.44;5056754;28;19995;-83
2023/07/28 12:09:59;;;;;;;;;;;;;;;26.33;96.85;99309.47;5056933;28;19943;-81
2023/07/28 12:12:31;;;;;;;;;;;;;;;26.18;94.53;99301.09;5057405;28;19915;-83
2023/07/28 12:15:04;;;;;;;;;;;;;;;25.90;95.77;99308.66;5057966;28;19966;-83
2023/07/28 12:17:29;;;;;;;;;;;;;;;25.80;95.06;99313.03;5058855;28;20282;-82
2023/07/28 12:20:10;;;;;;;;;;;;;;;25.69;99.89;99313.72;5057714;28;19915;-82
2023/07/28 12:22:42;;;;;;;;;;;;;;;25.64;98.22;99300.19;5057801;28;19916;-83
2023/07/28 12:25:08;;;;;;;;;;;;;;;25.70;100.00;99307.25;5057590;28;19916;-83
2023/07/28 12:27:33;;;;;;;;;;;;;;;25.81;98.96;99315.34;5057176;28;19913;-82
2023/07/28 12:29:59;;;;;;;;;;;;;;;25.87;97.09;99320.88;5056294;28;19909;-84
2023/07/28 12:32:24;;;;;;;;;;;;;;;25.77;94.38;99312.16;5056333;28;19909;-83
2023/07/28 12:34:50;;;;;;;;;;;;;;;25.57;94.33;99315.78;5056146;28;19909;-83